Arminto, Wyoming
Current Conditions -  °F | °C
As of 9:53 AM on Friday 19 Dec 2014 (Local Time) from KCPR Reporting Station
Clear Clear  
Wind Chill: 12°   Ceiling: Unl
Heat Index: 27°   Visibility: 10mi
Dew Point: 18°   Wind: 24mph
Humidity: 69%   Direction: 210°SSW
Pressure: 30.04"   Gusts: 32mph
Location:  43.18°N, 107.26°W
Report Text: KCPR 191653Z 21021G28KT 10SM CLR M03/M08 A3004 RMK AO2 PK WND 21029/1626 SLP211 T10281078
Loading
Personal Weather Stations






























Interactive Weather Map New forecast layout! Learn more

10-Day Weather Forecast

Advertisements
Track Severe Weather on mobile